Hicksville, OH (43526)

5:42 AM EDT on August 26, 2016 (GMT -0400)
Hicksville | | Change Station
Active Advisory: Special Statement

Elev 774 ft 41.30 °N, 84.76 °W | Updated 50 seconds ago

Clear
Clear
66.9 °F
Feels Like 66.9 °F
N
0.0
Wind Variable Wind from NNE
Gusts 0.0 mph

Today
High -- | Low -- °F
--% Chance of Precip.
Yesterday
High -- | Low -- °F
Precip. -- in
Pressure 30.09 in
Visibility 10.0 miles
Clouds Clear
Dew Point 67 °F
Humidity 99%
Rainfall 0.00 in
Snow Depth Not available.
6:59 AM 8:20 PM
Last Quarter, 36% visible
METAR KDFI 260853Z AUTO 00000KT 10SM CLR 20/18 A3011 RMK AO2 SLP189 T02000178 51009
Pressure 30.09 in
Visibility 10.0 miles
Clouds Clear
Dew Point 67 °F
Humidity 99%
Rainfall 0.00 in
Snow Depth Not available.
6:59 AM 8:20 PM
Last Quarter, 36% visible
METAR KDFI 260853Z AUTO 00000KT 10SM CLR 20/18 A3011 RMK AO2 SLP189 T02000178 51009

10-Day Weather Forecast

Almanac

Astronomy

Aug. 26, 2016 Rise Set
Actual Time
Civil Twilight
Nautical Twilight
Astronomical Twilight
Moon
Length of Visible Light
Length of Day
Tomorrow will be .
, % of the Moon is Illuminated

Today's Extremes

State Highs State Lows

Community

WunderPhotos

Upload Photos

1,935,069 photos uploaded!

WunderBlog® & News

Nearby

Air Quality

  Air Quality AQ Index Pollutant
Not available.

Snow Depth

Station Depth Elevation

Earthquake Activity

City Distance Mag. Time & Date
Minimum magnitude displayed is 2.5.

Coastal Water Temperatures

Place Temperature

Stations

Nearby Weather Stations

Station Location Temp. Windchill Dew Point Humidity Wind Precip. Elev Updated Type
                   

Watches & Warnings

Special Statement
Issued: 3:54 AM CDT Aug. 26, 2016 – National Weather Service

... Patchy dense fog early this morning...

Fog will continue across much of the area early this morning and
may be dense in some, mainly rural, locations. Visibilities are
expected to improve shortly after sunrise. In the meantime, people
should use extra caution when driving and be prepared to slow down
when fog banks are encountered.